Time;durP1;ratioP1;P1;durP2;ratioP2;P2;SDS_P1;SDS_P2;PMS_P1;PMS_P2;Temp;Humidity;BMP_temperature;BMP_pressure;BME280_temperature;BME280_humidity;BME280_pressure;Samples;Min_cycle;Max_cycle;Signal;HPM_P1;HPM_P2
2022/02/25 00:02:04;;;;;;;2.08;0.63;;;2.60;99.90;;;;;;5050189;28;20039;-74
2022/02/25 00:04:36;;;;;;;1.95;0.77;;;2.50;99.90;;;;;;5086512;28;20120;-72
2022/02/25 00:07:09;;;;;;;1.38;0.60;;;2.50;99.90;;;;;;5069490;28;20048;-72
2022/02/25 00:09:41;;;;;;;1.25;0.68;;;2.40;99.90;;;;;;5071824;28;20530;-72
2022/02/25 00:12:12;;;;;;;0.70;0.50;;;2.50;99.90;;;;;;5071890;28;20714;-72
2022/02/25 00:14:39;;;;;;;0.98;0.60;;;2.40;99.90;;;;;;5070176;28;20078;-72
2022/02/25 00:17:06;;;;;;;1.35;0.70;;;2.30;99.90;;;;;;5071864;28;20068;-72
2022/02/25 00:19:33;;;;;;;2.35;0.80;;;2.30;99.90;;;;;;5070541;28;20071;-72
2022/02/25 00:22:05;;;;;;;3.80;0.80;;;2.20;99.90;;;;;;5054585;28;20136;-72
2022/02/25 00:24:37;;;;;;;1.65;0.70;;;2.20;99.90;;;;;;5071271;28;20444;-72
2022/02/25 00:27:09;;;;;;;0.98;0.60;;;2.10;99.90;;;;;;5071631;28;20041;-71
2022/02/25 00:29:37;;;;;;;1.02;0.60;;;2.10;99.90;;;;;;5071444;28;20049;-72
2022/02/25 00:32:13;;;;;;;2.40;0.80;;;2.10;99.90;;;;;;5070333;28;20051;-71
2022/02/25 00:34:44;;;;;;;1.23;0.60;;;2.10;99.90;;;;;;5071182;28;20095;-71
2022/02/25 00:37:16;;;;;;;1.60;0.80;;;2.10;99.90;;;;;;5070205;28;20049;-71
2022/02/25 00:39:49;;;;;;;1.85;1.10;;;2.10;99.90;;;;;;5070055;28;20542;-72
2022/02/25 00:42:22;;;;;;;1.98;0.63;;;2.00;99.90;;;;;;5069938;28;20070;-72
2022/02/25 00:44:54;;;;;;;1.30;0.60;;;2.00;99.90;;;;;;5086422;28;20111;-72
2022/02/25 00:47:26;;;;;;;3.15;0.82;;;2.00;99.90;;;;;;5071363;28;20628;-71
2022/02/25 00:50:00;;;;;;;1.30;0.68;;;1.90;99.90;;;;;;5070144;28;20097;-71
2022/02/25 00:52:34;;;;;;;3.00;0.80;;;1.90;99.90;;;;;;5068375;28;20053;-71
2022/02/25 00:55:07;;;;;;;1.85;0.65;;;1.90;99.90;;;;;;5070194;28;20135;-71
2022/02/25 00:57:35;;;;;;;1.80;0.70;;;1.90;99.90;;;;;;5069911;28;20040;-71
2022/02/25 01:00:08;;;;;;;1.42;0.68;;;1.90;99.90;;;;;;5069917;28;20127;-71
2022/02/25 01:02:43;;;;;;;1.85;0.70;;;1.90;99.90;;;;;;5086252;28;20072;-72
2022/02/25 01:05:10;;;;;;;1.60;0.40;;;1.90;99.90;;;;;;5069968;28;20079;-72
2022/02/25 01:07:44;;;;;;;3.08;0.55;;;1.90;99.90;;;;;;5070980;28;20040;-71
2022/02/25 01:10:16;;;;;;;;;;;1.90;99.90;;;;;;5070321;28;20124;-72
2022/02/25 01:12:48;;;;;;;1.20;0.47;;;1.90;99.90;;;;;;5069372;28;19921;-71
2022/02/25 01:15:20;;;;;;;0.85;0.50;;;2.00;99.90;;;;;;5071105;28;20131;-71
2022/02/25 01:17:52;;;;;;;0.50;0.47;;;2.00;99.90;;;;;;5071012;28;20067;-72
2022/02/25 01:20:19;;;;;;;0.93;0.40;;;2.00;99.90;;;;;;5070940;28;20040;-71
2022/02/25 01:22:51;;;;;;;1.20;0.40;;;2.10;99.90;;;;;;5069313;28;20430;-72
2022/02/25 01:25:23;;;;;;;0.45;0.20;;;2.10;99.90;;;;;;5069837;28;20131;-71
2022/02/25 01:27:54;;;;;;;1.85;0.40;;;2.10;99.90;;;;;;5069409;28;20519;-71
2022/02/25 01:30:26;;;;;;;1.73;0.40;;;2.10;99.90;;;;;;5069762;28;20079;-71
2022/02/25 01:32:58;;;;;;;0.85;0.25;;;2.10;99.90;;;;;;5068996;28;20230;-71
2022/02/25 01:35:25;;;;;;;2.72;0.55;;;2.10;99.90;;;;;;5070909;28;20115;-71
2022/02/25 01:37:56;;;;;;;1.50;0.40;;;2.10;99.90;;;;;;5069538;28;20143;-71
2022/02/25 01:40:23;;;;;;;0.75;0.30;;;2.10;99.90;;;;;;5069439;28;20132;-71
2022/02/25 01:42:56;;;;;;;0.63;0.30;;;2.10;99.90;;;;;;5068940;28;20106;-71
2022/02/25 01:45:23;;;;;;;0.75;0.40;;;2.10;99.90;;;;;;5070689;28;20064;-71
2022/02/25 01:47:55;;;;;;;1.50;0.43;;;2.10;99.90;;;;;;5070528;28;20127;-71
2022/02/25 01:50:25;;;;;;;0.47;0.30;;;2.10;99.90;;;;;;5069578;28;20193;-71
2022/02/25 01:53:01;;;;;;;0.70;0.38;;;2.10;99.90;;;;;;5069073;28;20127;-71
2022/02/25 01:55:33;;;;;;;0.65;0.43;;;2.10;99.90;;;;;;5069374;28;20448;-71
2022/02/25 01:58:07;;;;;;;0.50;0.40;;;2.00;99.90;;;;;;5069385;28;20172;-71
2022/02/25 02:00:40;;;;;;;0.93;0.30;;;2.10;99.90;;;;;;5070074;28;20087;-71
2022/02/25 02:03:13;;;;;;;1.10;0.27;;;2.10;99.90;;;;;;5069655;28;20082;-71
2022/02/25 02:05:44;;;;;;;0.85;0.40;;;2.10;99.90;;;;;;5068873;28;20377;-71
2022/02/25 02:08:16;;;;;;;2.00;0.30;;;2.00;99.90;;;;;;5068408;28;20549;-72
2022/02/25 02:10:43;;;;;;;3.25;0.63;;;2.00;99.90;;;;;;5068534;28;20052;-71
2022/02/25 02:13:12;;;;;;;1.40;0.60;;;2.00;99.90;;;;;;5051521;28;20059;-71
2022/02/25 02:15:44;;;;;;;1.20;0.70;;;2.00;99.90;;;;;;5068879;28;20050;-71
2022/02/25 02:18:16;;;;;;;1.13;0.40;;;2.00;99.90;;;;;;5069913;28;20051;-71
2022/02/25 02:20:44;;;;;;;0.68;0.32;;;2.00;99.90;;;;;;5051880;28;20048;-71
2022/02/25 02:23:17;;;;;;;1.13;0.40;;;2.00;99.90;;;;;;5069374;28;20032;-71
2022/02/25 02:25:49;;;;;;;0.50;0.30;;;1.90;99.90;;;;;;5069895;28;20036;-71
2022/02/25 02:28:20;;;;;;;0.75;0.40;;;1.90;99.90;;;;;;5069617;28;20135;-71
2022/02/25 02:30:51;;;;;;;1.70;0.30;;;1.90;99.90;;;;;;5072202;28;20045;-71
2022/02/25 02:33:18;;;;;;;2.22;0.60;;;1.90;99.90;;;;;;5071460;28;20136;-71
2022/02/25 02:35:49;;;;;;;3.13;0.60;;;1.90;99.90;;;;;;5073365;28;20048;-71
2022/02/25 02:38:16;;;;;;;0.30;0.30;;;2.00;99.90;;;;;;5073150;28;20044;-72
2022/02/25 02:40:48;;;;;;;0.95;0.50;;;2.00;99.90;;;;;;5071760;28;20036;-72
2022/02/25 02:43:20;;;;;;;0.98;0.68;;;2.00;99.90;;;;;;5071497;28;20047;-71
2022/02/25 02:45:54;;;;;;;0.88;0.60;;;1.90;99.90;;;;;;5072216;28;20060;-71
2022/02/25 02:48:26;;;;;;;1.37;0.70;;;2.00;99.90;;;;;;5087910;28;20036;-71
2022/02/25 02:50:59;;;;;;;2.58;0.60;;;2.00;99.90;;;;;;5071922;28;20283;-71
2022/02/25 02:53:31;;;;;;;1.60;0.60;;;1.90;99.90;;;;;;5072412;28;20415;-71
2022/02/25 02:56:03;;;;;;;1.48;0.65;;;1.90;99.90;;;;;;5073082;28;20037;-71
2022/02/25 02:58:35;;;;;;;1.27;0.60;;;1.90;99.90;;;;;;5072891;28;20517;-71
2022/02/25 03:01:10;;;;;;;3.53;0.45;;;2.00;99.90;;;;;;5072940;28;20080;-71
2022/02/25 03:03:37;;;;;;;3.42;0.77;;;2.00;99.90;;;;;;5070462;28;20119;-71
2022/02/25 03:06:11;;;;;;;1.40;0.45;;;2.00;99.90;;;;;;5071076;28;20586;-71
2022/02/25 03:08:43;;;;;;;1.40;0.60;;;2.00;99.90;;;;;;5071748;28;20119;-71
2022/02/25 03:11:16;;;;;;;0.80;0.50;;;2.00;99.90;;;;;;5088117;28;20040;-71
2022/02/25 03:13:49;;;;;;;1.80;0.60;;;2.00;99.90;;;;;;5071638;28;20045;-71
2022/02/25 03:16:23;;;;;;;1.88;0.50;;;1.90;99.90;;;;;;5071220;28;20037;-71
2022/02/25 03:18:55;;;;;;;0.98;0.47;;;1.90;99.90;;;;;;5072150;28;20054;-71
2022/02/25 03:21:22;;;;;;;0.68;0.52;;;1.90;99.90;;;;;;5070824;28;20041;-71
2022/02/25 03:23:53;;;;;;;1.50;0.47;;;2.00;99.90;;;;;;5071665;28;20040;-72
2022/02/25 03:26:25;;;;;;;0.73;0.57;;;2.00;99.90;;;;;;5072126;28;20040;-71
2022/02/25 03:28:57;;;;;;;1.17;0.50;;;2.00;99.90;;;;;;5071720;28;20040;-71
2022/02/25 03:31:29;;;;;;;1.15;0.73;;;2.00;99.90;;;;;;5070551;28;20051;-71
2022/02/25 03:34:01;;;;;;;1.95;0.80;;;2.00;99.90;;;;;;5071068;28;20598;-71
2022/02/25 03:36:28;;;;;;;1.17;0.55;;;2.00;99.90;;;;;;5071684;28;20588;-71
2022/02/25 03:38:59;;;;;;;2.65;0.80;;;2.00;99.90;;;;;;5071569;28;20051;-71
2022/02/25 03:41:31;;;;;;;2.25;0.85;;;2.00;99.90;;;;;;5069276;28;20049;-71
2022/02/25 03:44:00;;;;;;;3.30;0.90;;;1.90;99.90;;;;;;5069694;28;20044;-71
2022/02/25 03:46:26;;;;;;;3.22;1.05;;;1.90;99.90;;;;;;5086988;28;20517;-71
2022/02/25 03:48:53;;;;;;;0.80;0.40;;;1.90;99.90;;;;;;5071371;28;20060;-71
2022/02/25 03:51:21;;;;;;;1.75;0.50;;;1.90;99.90;;;;;;5071484;28;20048;-71
2022/02/25 03:53:53;;;;;;;3.58;0.63;;;1.90;99.90;;;;;;5071060;28;20120;-71
2022/02/25 03:56:22;;;;;;;1.90;0.50;;;1.90;99.90;;;;;;5070092;28;20563;-71
2022/02/25 03:58:54;;;;;;;2.97;0.63;;;1.90;99.90;;;;;;5054057;28;20040;-71
2022/02/25 04:01:26;;;;;;;1.58;0.82;;;1.90;99.90;;;;;;5071614;28;20128;-71
2022/02/25 04:03:58;;;;;;;1.23;0.60;;;1.90;99.90;;;;;;5071005;28;20047;-71
2022/02/25 04:06:33;;;;;;;2.65;0.70;;;1.90;99.90;;;;;;5070319;28;20051;-71
2022/02/25 04:09:07;;;;;;;2.15;0.57;;;1.90;99.90;;;;;;5069552;28;20048;-71
2022/02/25 04:11:34;;;;;;;2.25;0.57;;;1.90;99.90;;;;;;5071377;28;20512;-71
2022/02/25 04:14:06;;;;;;;3.15;1.00;;;1.90;99.90;;;;;;5069299;28;20051;-71
2022/02/25 04:16:37;;;;;;;1.90;0.60;;;1.80;99.90;;;;;;5070033;28;20047;-71
2022/02/25 04:19:09;;;;;;;1.67;0.60;;;1.80;99.90;;;;;;5054369;28;20075;-71
2022/02/25 04:21:37;;;;;;;1.30;0.50;;;1.80;99.90;;;;;;5070267;28;20511;-71
2022/02/25 04:24:09;;;;;;;1.33;0.80;;;1.80;99.90;;;;;;5071000;28;20043;-71
2022/02/25 04:26:41;;;;;;;2.00;0.82;;;1.70;99.90;;;;;;5071751;28;20475;-71
2022/02/25 04:29:12;;;;;;;2.08;0.88;;;1.70;99.90;;;;;;5070091;28;20044;-71
2022/02/25 04:31:44;;;;;;;3.38;1.10;;;1.70;99.90;;;;;;5054945;28;20157;-71
2022/02/25 04:34:11;;;;;;;3.65;1.23;;;1.70;99.90;;;;;;5070694;28;20121;-72
2022/02/25 04:36:43;;;;;;;2.70;0.88;;;1.70;99.90;;;;;;5070360;28;20048;-71
2022/02/25 04:39:25;;;;;;;2.05;0.80;;;1.70;99.90;;;;;;5071724;28;20048;-71
2022/02/25 04:41:57;;;;;;;0.85;0.57;;;1.60;99.90;;;;;;5070750;28;20082;-71
2022/02/25 04:44:29;;;;;;;1.42;0.70;;;1.60;99.90;;;;;;5071889;28;20608;-71
2022/02/25 04:47:03;;;;;;;2.88;0.63;;;1.60;99.90;;;;;;5071153;28;20048;-71
2022/02/25 04:49:37;;;;;;;1.17;0.88;;;1.60;99.90;;;;;;5070574;28;20050;-71
2022/02/25 04:52:12;;;;;;;1.00;0.50;;;1.60;99.90;;;;;;5068367;28;20049;-71
2022/02/25 04:54:45;;;;;;;1.52;0.68;;;1.50;99.90;;;;;;5068469;28;20507;-71
2022/02/25 04:57:17;;;;;;;2.30;0.60;;;1.50;99.90;;;;;;5070030;28;20057;-71
2022/02/25 04:59:44;;;;;;;3.78;1.23;;;1.50;99.90;;;;;;5068905;28;20151;-71
2022/02/25 05:02:16;;;;;;;1.95;0.65;;;1.40;99.90;;;;;;5055464;28;20828;-71
2022/02/25 05:04:47;;;;;;;2.67;0.93;;;1.40;99.90;;;;;;5047722;28;20056;-71
2022/02/25 05:07:20;;;;;;;2.90;0.82;;;1.40;99.90;;;;;;5043424;28;20176;-71
2022/02/25 05:09:53;;;;;;;;;;;1.30;99.90;;;;;;5048515;28;20036;-71
2022/02/25 05:12:24;;;;;;;4.80;1.50;;;1.30;99.90;;;;;;5048198;28;19932;-71
2022/02/25 05:20:34;;;;;;;0.85;0.43;;;1.20;99.90;;;;;;5065362;28;20128;-71
2022/02/25 05:23:06;;;;;;;0.88;0.60;;;1.20;99.90;;;;;;5047838;28;20043;-71
2022/02/25 05:25:35;;;;;;;0.77;0.43;;;1.20;99.90;;;;;;5044900;28;20194;-71
2022/02/25 05:28:09;;;;;;;3.28;0.80;;;1.20;99.90;;;;;;5048252;28;20048;-71
2022/02/25 05:30:40;;;;;;;3.58;0.77;;;1.20;99.90;;;;;;5049880;28;20052;-72
2022/02/25 05:33:13;;;;;;;3.78;0.73;;;1.20;99.90;;;;;;5064596;28;20128;-72
2022/02/25 05:35:45;;;;;;;3.35;0.80;;;1.20;99.90;;;;;;5049292;28;20149;-71
2022/02/25 05:38:16;;;;;;;1.30;0.50;;;1.20;99.90;;;;;;5049379;28;20144;-71
2022/02/25 05:40:44;;;;;;;2.33;0.80;;;1.20;99.90;;;;;;5050418;28;20041;-72
2022/02/25 05:43:15;;;;;;;2.33;0.60;;;1.20;99.90;;;;;;5064796;28;20047;-71
2022/02/25 05:45:44;;;;;;;1.27;0.52;;;1.20;99.90;;;;;;5049277;28;20073;-71
2022/02/25 05:48:18;;;;;;;2.45;0.60;;;1.20;99.90;;;;;;5047883;28;20131;-71
2022/02/25 05:50:45;;;;;;;3.33;0.98;;;1.20;99.90;;;;;;5048475;28;20049;-71
2022/02/25 05:53:12;;;;;;;3.65;0.82;;;1.20;99.90;;;;;;5048719;28;20056;-71
2022/02/25 05:55:46;;;;;;;2.35;0.57;;;1.20;99.90;;;;;;5033187;28;20049;-71
2022/02/25 05:58:13;;;;;;;1.30;0.40;;;1.30;99.90;;;;;;5032190;28;20098;-71
2022/02/25 06:00:41;;;;;;;2.03;0.77;;;1.30;99.90;;;;;;5049910;28;20052;-71
2022/02/25 06:03:12;;;;;;;2.72;0.50;;;1.30;99.90;;;;;;5048112;28;20507;-71
2022/02/25 06:05:39;;;;;;;3.40;0.65;;;1.30;99.90;;;;;;5053484;28;20124;-71
2022/02/25 06:08:06;;;;;;;2.22;0.70;;;1.30;99.90;;;;;;5036755;28;20463;-71
2022/02/25 06:10:35;;;;;;;3.72;1.33;;;1.30;99.90;;;;;;5052660;28;20049;-72
2022/02/25 06:13:07;;;;;;;2.28;0.80;;;1.30;99.90;;;;;;5052199;28;20075;-71
2022/02/25 06:15:40;;;;;;;3.13;0.75;;;1.30;99.90;;;;;;5053470;28;20051;-71
2022/02/25 06:18:12;;;;;;;3.85;0.77;;;1.30;99.90;;;;;;5053630;28;20037;-71
2022/02/25 06:20:39;;;;;;;3.53;0.80;;;1.20;99.90;;;;;;5064736;28;20485;-71
2022/02/25 06:23:07;;;;;;;3.78;0.63;;;1.30;99.90;;;;;;5072847;28;20040;-71
2022/02/25 06:25:34;;;;;;;1.67;0.80;;;1.20;99.90;;;;;;5066385;28;20047;-71
2022/02/25 06:28:06;;;;;;;3.15;0.95;;;1.20;99.90;;;;;;5043773;28;20068;-71
2022/02/25 06:30:33;;;;;;;1.90;0.77;;;1.20;99.90;;;;;;5045984;28;20124;-71
2022/02/25 06:33:09;;;;;;;1.63;0.73;;;1.20;99.90;;;;;;5018967;28;20056;-72
2022/02/25 06:35:37;;;;;;;3.92;0.80;;;1.20;99.90;;;;;;5052107;28;20069;-71
2022/02/25 06:38:05;;;;;;;2.72;0.85;;;1.20;99.90;;;;;;5053004;28;20118;-71
2022/02/25 06:40:46;;;;;;;1.67;0.80;;;1.20;99.90;;;;;;5050587;28;20068;-71
2022/02/25 06:43:14;;;;;;;2.25;0.80;;;1.20;99.90;;;;;;5066033;28;20037;-71
2022/02/25 06:45:46;;;;;;;1.83;1.10;;;1.20;99.90;;;;;;5051207;28;20044;-71
2022/02/25 06:48:15;;;;;;;1.83;0.85;;;1.20;99.90;;;;;;5068404;28;20099;-71
2022/02/25 06:50:49;;;;;;;4.90;1.23;;;1.20;99.90;;;;;;5051817;28;20059;-71
2022/02/25 06:53:17;;;;;;;3.03;1.17;;;1.20;99.90;;;;;;5067595;28;20045;-71
2022/02/25 06:55:50;;;;;;;;;;;1.20;99.90;;;;;;5067825;28;20068;-71
2022/02/25 06:58:23;;;;;;;3.55;0.82;;;1.20;99.90;;;;;;5051848;28;20325;-71
2022/02/25 07:00:54;;;;;;;4.80;0.93;;;1.20;99.90;;;;;;5053549;28;20063;-71
2022/02/25 07:03:27;;;;;;;2.53;0.82;;;1.30;99.90;;;;;;5030946;28;20446;-71
2022/02/25 07:05:54;;;;;;;2.30;0.80;;;1.30;99.90;;;;;;5050117;28;20120;-71
2022/02/25 07:08:27;;;;;;;7.20;0.70;;;1.40;99.90;;;;;;5048339;28;20079;-71
2022/02/25 07:10:59;;;;;;;5.38;1.00;;;1.40;99.90;;;;;;5049364;28;20136;-71
2022/02/25 07:13:31;;;;;;;6.82;1.30;;;1.50;99.90;;;;;;5049881;28;20075;-71
2022/02/25 07:15:58;;;;;;;4.15;1.10;;;1.50;99.90;;;;;;5067038;28;20055;-71
2022/02/25 07:18:31;;;;;;;2.10;0.75;;;1.50;99.90;;;;;;5045576;28;20036;-71
2022/02/25 07:21:03;;;;;;;7.35;2.28;;;1.50;99.90;;;;;;5035411;28;20484;-71
2022/02/25 07:23:34;;;;;;;5.00;1.00;;;1.50;99.90;;;;;;5050569;28;20071;-71
2022/02/25 07:26:09;;;;;;;3.00;0.77;;;1.50;99.90;;;;;;5054173;28;20495;-71
2022/02/25 07:28:41;;;;;;;2.70;1.42;;;1.50;99.90;;;;;;5063714;28;20127;-71
2022/02/25 07:31:08;;;;;;;7.32;1.63;;;1.50;99.90;;;;;;5055294;28;20045;-71
2022/02/25 07:33:40;;;;;;;7.50;1.27;;;1.50;99.90;;;;;;5076646;28;20126;-71
2022/02/25 07:36:12;;;;;;;3.60;1.02;;;1.50;99.90;;;;;;5079630;28;20049;-71
2022/02/25 07:38:44;;;;;;;4.43;1.00;;;1.50;99.90;;;;;;5044161;28;20048;-71
2022/02/25 07:41:16;;;;;;;5.45;0.90;;;1.50;99.90;;;;;;5049114;28;20044;-71
2022/02/25 07:43:48;;;;;;;4.35;0.90;;;1.50;99.90;;;;;;5054472;28;20041;-71
2022/02/25 07:46:21;;;;;;;7.75;2.22;;;1.60;99.90;;;;;;5062661;28;20033;-71
2022/02/25 07:48:54;;;;;;;6.25;2.05;;;1.70;99.90;;;;;;5045816;28;20148;-71
2022/02/25 07:51:27;;;;;;;4.60;1.48;;;1.70;99.90;;;;;;5067703;28;20049;-71
2022/02/25 07:54:03;;;;;;;;;;;1.80;99.90;;;;;;5052857;28;20036;-71
2022/02/25 07:56:36;;;;;;;3.25;0.95;;;1.90;99.90;;;;;;5056402;28;20015;-71
2022/02/25 07:59:10;;;;;;;2.42;1.00;;;2.00;99.90;;;;;;5046075;28;20523;-72
2022/02/25 08:01:43;;;;;;;6.00;1.15;;;2.00;99.90;;;;;;5055389;28;20546;-71
2022/02/25 08:04:14;;;;;;;2.15;0.85;;;2.10;99.90;;;;;;5045571;28;20055;-71
2022/02/25 08:06:47;;;;;;;9.50;1.15;;;2.20;99.90;;;;;;5047569;28;20037;-71
2022/02/25 08:09:21;;;;;;;3.80;1.00;;;2.20;99.90;;;;;;5047653;28;20038;-71
2022/02/25 08:11:49;;;;;;;4.32;1.05;;;2.30;99.90;;;;;;5051181;28;20666;-71
2022/02/25 08:14:17;;;;;;;2.50;0.70;;;2.30;99.90;;;;;;5062383;28;20141;-71
2022/02/25 08:16:50;;;;;;;4.20;1.38;;;2.40;99.90;;;;;;5050299;28;20114;-71
2022/02/25 08:19:17;;;;;;;3.35;0.90;;;2.40;99.90;;;;;;5067453;28;20492;-71
2022/02/25 08:21:49;;;;;;;6.18;1.00;;;2.50;99.90;;;;;;5048663;28;20710;-71
2022/02/25 08:24:20;;;;;;;5.20;1.13;;;2.50;99.90;;;;;;5046683;28;20033;-71
2022/02/25 08:26:52;;;;;;;4.25;1.13;;;2.60;99.90;;;;;;5064305;28;20041;-71
2022/02/25 08:29:24;;;;;;;5.25;0.98;;;2.70;99.90;;;;;;5051638;28;20087;-71
2022/02/25 08:31:52;;;;;;;6.93;1.60;;;2.70;99.90;;;;;;5046779;28;20048;-71
2022/02/25 08:34:23;;;;;;;3.30;1.10;;;2.70;99.90;;;;;;5045340;28;20120;-71
2022/02/25 08:36:56;;;;;;;5.18;0.85;;;2.70;99.90;;;;;;5047187;28;20526;-71
2022/02/25 08:39:23;;;;;;;5.97;0.98;;;2.80;99.90;;;;;;5047622;28;20123;-71
2022/02/25 08:41:55;;;;;;;2.05;0.80;;;2.80;99.90;;;;;;5053027;28;20128;-72
2022/02/25 08:44:24;;;;;;;7.70;1.13;;;2.80;99.90;;;;;;5050926;28;20028;-70
2022/02/25 08:46:51;;;;;;;5.18;0.77;;;2.80;99.90;;;;;;5054177;28;20041;-70
2022/02/25 08:49:18;;;;;;;5.70;1.30;;;2.70;99.90;;;;;;5055459;28;20128;-69
2022/02/25 08:51:51;;;;;;;6.85;2.00;;;2.70;99.90;;;;;;5060680;28;20044;-70
2022/02/25 08:54:23;;;;;;;4.95;0.90;;;2.80;99.90;;;;;;5063104;28;20075;-69
2022/02/25 08:56:56;;;;;;;4.13;0.80;;;2.90;99.90;;;;;;5054637;28;20493;-70
2022/02/25 08:59:29;;;;;;;4.80;0.97;;;2.90;99.90;;;;;;5054010;28;20098;-71
2022/02/25 09:02:01;;;;;;;3.40;0.90;;;3.00;99.90;;;;;;5071339;28;20321;-69
2022/02/25 09:04:33;;;;;;;4.68;1.25;;;3.00;99.90;;;;;;5060343;28;20111;-70
2022/02/25 09:07:04;;;;;;;7.38;1.10;;;3.00;99.90;;;;;;5050964;28;20149;-70
2022/02/25 09:09:36;;;;;;;5.28;1.38;;;3.10;99.90;;;;;;5051210;28;20516;-70
2022/02/25 09:12:03;;;;;;;6.93;1.42;;;3.10;99.90;;;;;;5054071;28;20063;-71
2022/02/25 09:14:35;;;;;;;3.28;1.23;;;3.10;99.90;;;;;;5058082;28;20125;-70
2022/02/25 09:17:07;;;;;;;4.63;1.17;;;3.00;99.90;;;;;;5054855;28;20071;-70
2022/02/25 09:19:36;;;;;;;2.50;0.95;;;2.90;99.90;;;;;;5071019;28;20075;-70
2022/02/25 09:22:06;;;;;;;5.63;1.95;;;2.90;99.90;;;;;;5057132;28;20041;-70
2022/02/25 09:24:38;;;;;;;3.30;0.90;;;2.90;99.90;;;;;;5050346;28;20033;-70
2022/02/25 09:27:10;;;;;;;2.60;1.00;;;3.00;99.90;;;;;;5049092;28;20131;-70
2022/02/25 09:29:42;;;;;;;4.85;1.00;;;3.00;99.90;;;;;;5060674;28;20119;-70
2022/02/25 09:32:14;;;;;;;3.88;1.10;;;3.10;99.90;;;;;;5070851;28;20068;-71
2022/02/25 09:34:42;;;;;;;6.43;1.10;;;3.30;99.90;;;;;;5051195;28;20045;-70
2022/02/25 09:37:08;;;;;;;3.95;1.00;;;3.50;99.90;;;;;;5039458;28;20431;-71
2022/02/25 09:39:41;;;;;;;6.85;1.67;;;3.40;99.90;;;;;;5051332;28;20043;-70
2022/02/25 09:42:13;;;;;;;4.43;1.33;;;3.40;99.90;;;;;;5054577;28;20515;-71
2022/02/25 09:44:41;;;;;;;11.10;2.60;;;3.50;99.90;;;;;;5033120;28;20037;-71
2022/02/25 09:47:17;;;;;;;4.90;1.60;;;3.40;99.90;;;;;;5051384;28;20128;-71
2022/02/25 09:49:43;;;;;;;3.72;0.80;;;3.40;99.90;;;;;;5056239;28;20120;-72
2022/02/25 09:52:18;;;;;;;4.80;1.30;;;3.40;99.90;;;;;;5051700;28;20391;-71
2022/02/25 09:54:50;;;;;;;4.07;1.00;;;3.40;99.90;;;;;;5051828;28;20048;-70
2022/02/25 09:57:24;;;;;;;4.57;1.00;;;3.30;99.90;;;;;;5058095;28;20450;-69
2022/02/25 09:59:51;;;;;;;5.07;1.10;;;3.20;99.90;;;;;;5065344;28;20091;-70
2022/02/25 10:02:47;;;;;;;2.95;0.75;;;3.30;99.90;;;;;;5054631;28;20500;-71
2022/02/25 10:05:23;;;;;;;5.50;1.08;;;3.30;99.90;;;;;;5048637;28;20450;-71
2022/02/25 10:07:51;;;;;;;4.82;0.90;;;3.40;99.90;;;;;;5053047;28;20048;-71
2022/02/25 10:10:20;;;;;;;5.43;1.13;;;3.40;99.90;;;;;;5057952;28;20057;-71
2022/02/25 10:13:03;;;;;;;3.58;1.00;;;3.50;99.90;;;;;;5055551;28;20119;-70
2022/02/25 10:15:36;;;;;;;3.40;1.10;;;3.60;99.90;;;;;;5074038;28;20050;-70
2022/02/25 10:18:13;;;;;;;2.55;0.77;;;3.60;99.90;;;;;;5058127;28;20049;-70
2022/02/25 10:20:47;;;;;;;5.38;0.90;;;3.70;99.90;;;;;;5052165;28;20111;-70
2022/02/25 10:23:23;;;;;;;5.63;1.58;;;3.90;99.90;;;;;;5051944;28;20041;-70
2022/02/25 10:25:52;;;;;;;7.93;1.23;;;4.10;99.90;;;;;;5071948;28;20041;-71
2022/02/25 10:28:29;;;;;;;3.30;1.10;;;4.20;99.90;;;;;;5045841;28;20123;-70
2022/02/25 10:31:14;;;;;;;4.38;1.23;;;4.50;99.90;;;;;;5060341;28;20403;-71
2022/02/25 10:34:06;;;;;;;3.20;1.10;;;4.70;99.90;;;;;;5052373;28;20139;-70
2022/02/25 10:36:53;;;;;;;4.20;0.80;;;4.80;99.90;;;;;;5062429;28;20120;-70
2022/02/25 10:39:29;;;;;;;4.90;0.93;;;4.70;99.90;;;;;;5053142;28;20048;-71
2022/02/25 10:42:06;;;;;;;5.05;0.93;;;4.50;99.90;;;;;;5067642;28;20087;-71
2022/02/25 10:44:53;;;;;;;2.92;0.70;;;4.40;99.90;;;;;;5052923;28;20049;-70
2022/02/25 10:47:27;;;;;;;4.38;1.00;;;4.30;99.90;;;;;;5053334;28;20043;-71
2022/02/25 10:50:12;;;;;;;2.40;1.30;;;4.20;99.90;;;;;;5056043;28;20136;-70
2022/02/25 10:52:48;;;;;;;5.93;0.90;;;4.20;99.90;;;;;;5051726;28;20044;-71
2022/02/25 10:55:19;;;;;;;8.38;2.20;;;4.10;99.90;;;;;;5051994;28;20546;-70
2022/02/25 10:57:56;;;;;;;3.00;0.90;;;4.20;99.90;;;;;;5053460;28;20491;-71
2022/02/25 11:00:25;;;;;;;2.88;1.00;;;4.20;99.90;;;;;;5058063;28;20047;-70
2022/02/25 11:03:01;;;;;;;4.03;0.88;;;4.30;99.90;;;;;;5052755;28;20551;-70
2022/02/25 11:05:35;;;;;;;6.82;1.08;;;4.30;99.90;;;;;;5051138;28;20102;-71
2022/02/25 11:08:05;;;;;;;3.22;1.23;;;4.40;99.90;;;;;;5072009;28;20049;-70
2022/02/25 11:10:35;;;;;;;2.22;0.90;;;4.40;99.90;;;;;;5050980;28;20025;-70
2022/02/25 11:13:09;;;;;;;5.07;0.82;;;4.30;99.90;;;;;;5067465;28;20056;-72
2022/02/25 11:15:43;;;;;;;1.90;0.82;;;4.30;99.90;;;;;;5053840;28;20045;-70
2022/02/25 11:18:15;;;;;;;4.40;0.90;;;4.40;99.90;;;;;;5063153;28;20041;-71
2022/02/25 11:20:49;;;;;;;3.58;0.88;;;4.40;99.90;;;;;;5070732;28;20107;-70
2022/02/25 11:23:23;;;;;;;3.20;0.80;;;4.40;99.90;;;;;;5056104;28;20036;-70
2022/02/25 11:25:54;;;;;;;3.17;0.70;;;4.40;99.90;;;;;;5049574;28;20119;-71
2022/02/25 11:28:25;;;;;;;2.72;0.80;;;4.40;99.90;;;;;;5053470;28;20496;-68
2022/02/25 11:31:16;;;;;;;6.72;0.73;;;4.30;99.90;;;;;;5046509;28;20041;-70
2022/02/25 11:33:53;;;;;;;4.22;0.90;;;4.30;99.90;;;;;;5051860;28;20124;-69
2022/02/25 11:36:44;;;;;;;2.47;0.70;;;4.30;99.90;;;;;;5057369;28;20123;-71
2022/02/25 11:39:30;;;;;;;3.08;1.15;;;4.40;99.90;;;;;;5058995;28;20059;-74
2022/02/25 11:42:04;;;;;;;1.02;0.50;;;4.50;99.90;;;;;;5035136;28;20041;-72
2022/02/25 11:44:35;;;;;;;2.85;0.82;;;4.50;99.90;;;;;;5051131;28;20075;-72
2022/02/25 11:47:03;;;;;;;7.47;3.08;;;4.50;99.90;;;;;;5050271;28;20041;-72
2022/02/25 11:49:38;;;;;;;2.50;0.70;;;4.50;99.90;;;;;;5035415;28;20069;-72
2022/02/25 11:52:09;;;;;;;3.80;1.45;;;4.60;99.90;;;;;;5042461;28;20795;-72
2022/02/25 11:54:46;;;;;;;7.00;2.50;;;4.70;99.90;;;;;;5035065;28;20098;-72
2022/02/25 11:57:20;;;;;;;3.83;1.00;;;4.70;99.90;;;;;;5047049;28;20055;-72
2022/02/25 11:59:55;;;;;;;4.07;0.60;;;4.60;99.90;;;;;;5045108;28;20040;-72
2022/02/25 12:02:32;;;;;;;5.13;1.00;;;4.60;99.90;;;;;;5042766;28;20500;-72
2022/02/25 12:05:07;;;;;;;2.50;1.13;;;4.90;99.90;;;;;;5062595;28;20047;-72
2022/02/25 12:07:41;;;;;;;3.45;0.90;;;5.10;99.90;;;;;;5050680;28;20492;-72
2022/02/25 12:10:11;;;;;;;7.40;1.20;;;5.30;99.90;;;;;;5050678;28;20044;-72
2022/02/25 12:13:00;;;;;;;3.08;0.93;;;5.40;99.50;;;;;;5050263;28;20198;-72
2022/02/25 12:15:34;;;;;;;2.97;0.80;;;5.40;99.90;;;;;;5067340;28;20045;-72
2022/02/25 12:18:04;;;;;;;5.82;1.55;;;5.50;99.90;;;;;;5050238;28;20148;-72
2022/02/25 12:20:38;;;;;;;4.18;2.00;;;5.30;98.10;;;;;;5056114;28;20045;-72
2022/02/25 12:23:18;;;;;;;4.22;1.00;;;5.40;98.50;;;;;;5047954;28;20060;-73
2022/02/25 12:26:04;;;;;;;1.98;0.70;;;5.50;98.50;;;;;;5041633;28;20045;-72
2022/02/25 12:28:33;;;;;;;2.42;0.68;;;5.50;95.60;;;;;;5051213;28;20734;-72
2022/02/25 12:31:13;;;;;;;7.53;1.67;;;5.40;96.50;;;;;;5050640;28;20468;-72
2022/02/25 12:33:45;;;;;;;2.05;0.70;;;5.40;97.00;;;;;;5044154;28;20045;-72
2022/02/25 12:36:29;;;;;;;2.92;0.60;;;5.70;97.60;;;;;;5033480;28;20503;-72
2022/02/25 12:39:11;;;;;;;4.18;1.10;;;5.80;95.90;;;;;;5039687;28;20052;-73
2022/02/25 12:41:56;;;;;;;2.95;0.60;;;5.90;94.00;;;;;;5045843;28;20152;-73
2022/02/25 12:44:30;;;;;;;5.10;0.95;;;5.80;93.90;;;;;;5065048;28;20120;-72
2022/02/25 12:47:06;;;;;;;2.30;0.80;;;5.60;94.20;;;;;;5050370;28;20049;-72
2022/02/25 12:49:40;;;;;;;3.20;0.95;;;5.80;94.90;;;;;;5048279;28;20037;-73
2022/02/25 12:52:13;;;;;;;3.83;0.90;;;6.10;93.90;;;;;;5050995;28;20041;-72
2022/02/25 12:54:40;;;;;;;3.25;0.93;;;6.40;93.30;;;;;;5050870;28;20106;-71
2022/02/25 12:57:13;;;;;;;2.80;1.23;;;6.50;91.60;;;;;;5046005;28;20403;-71
2022/02/25 12:59:49;;;;;;;2.13;0.45;;;6.60;90.80;;;;;;5053536;28;20054;-71
2022/02/25 13:02:22;;;;;;;3.28;0.82;;;6.70;88.50;;;;;;5051110;28;20045;-75
2022/02/25 13:04:54;;;;;;;3.80;0.70;;;6.80;86.80;;;;;;5037329;28;20455;-73
2022/02/25 13:07:27;;;;;;;2.58;0.60;;;6.90;85.80;;;;;;5032801;28;20045;-72
2022/02/25 13:10:04;;;;;;;2.28;0.68;;;6.80;85.50;;;;;;5042893;28;20037;-72
2022/02/25 13:12:36;;;;;;;3.70;0.90;;;6.60;86.80;;;;;;5049208;28;20052;-73
2022/02/25 13:15:08;;;;;;;2.83;1.05;;;6.50;84.70;;;;;;5036683;28;20047;-73
2022/02/25 13:17:35;;;;;;;3.22;0.95;;;6.40;90.80;;;;;;5072680;28;20441;-73
2022/02/25 13:20:10;;;;;;;4.88;1.55;;;6.10;90.40;;;;;;5071167;28;20564;-73
2022/02/25 13:22:46;;;;;;;4.10;0.82;;;5.90;91.10;;;;;;5070720;28;20112;-72
2022/02/25 13:25:14;;;;;;;9.82;1.77;;;5.60;91.70;;;;;;5063617;28;20597;-72
2022/02/25 13:27:57;;;;;;;5.30;1.65;;;5.20;98.10;;;;;;5069033;28;20076;-72
2022/02/25 13:30:32;;;;;;;2.75;0.90;;;4.50;99.90;;;;;;5052128;28;20421;-72